createdAt,value
2019-05-20T00:00:31.159Z,6.80
2019-05-20T00:03:01.824Z,11.57
2019-05-20T00:05:32.407Z,6.97
2019-05-20T00:08:03.211Z,6.50
2019-05-20T00:10:33.772Z,5.20
2019-05-20T00:13:04.335Z,5.60
2019-05-20T00:15:35.023Z,7.03
2019-05-20T00:18:05.589Z,6.13
2019-05-20T00:20:36.161Z,6.00
2019-05-20T00:23:06.733Z,5.80
2019-05-20T00:25:37.275Z,6.07
2019-05-20T00:28:07.825Z,8.90
2019-05-20T00:30:38.413Z,5.60
2019-05-20T00:33:09.117Z,7.90
2019-05-20T00:35:39.720Z,9.67
2019-05-20T00:38:10.298Z,7.30
2019-05-20T00:40:40.851Z,6.97
2019-05-20T00:43:12.383Z,6.70
2019-05-20T00:45:42.959Z,7.40
2019-05-20T00:48:13.520Z,7.37
2019-05-20T00:50:44.095Z,8.13
2019-05-20T00:53:14.650Z,8.40
2019-05-20T00:55:45.359Z,10.83
2019-05-20T00:58:16.017Z,15.70
2019-05-20T01:00:46.645Z,10.43
2019-05-20T01:03:18.274Z,9.03
2019-05-20T01:05:48.933Z,5.50
2019-05-20T01:08:19.502Z,9.30
2019-05-20T01:10:50.066Z,14.13
2019-05-20T01:13:22.034Z,11.03
2019-05-20T01:15:52.615Z,10.43
2019-05-20T01:18:23.174Z,8.43
2019-05-20T01:20:56.511Z,9.00
2019-05-20T01:23:27.102Z,10.23
2019-05-20T01:25:58.081Z,8.87
2019-05-20T01:28:28.662Z,8.27
2019-05-20T01:30:59.245Z,11.67
2019-05-20T01:33:29.825Z,12.87
2019-05-20T01:36:01.837Z,9.53
2019-05-20T01:38:33.453Z,10.27
2019-05-20T01:41:04.013Z,8.50
2019-05-20T01:43:34.588Z,9.97
2019-05-20T01:46:06.236Z,9.03
2019-05-20T01:48:36.814Z,9.77
2019-05-20T01:51:07.549Z,12.30
2019-05-20T01:53:38.134Z,10.70
2019-05-20T01:56:08.707Z,10.00
2019-05-20T01:58:39.814Z,12.73
2019-05-20T02:01:10.507Z,11.73
2019-05-20T02:03:41.071Z,13.73
2019-05-20T02:06:11.634Z,14.13
2019-05-20T02:08:42.200Z,15.83
2019-05-20T02:11:12.779Z,12.77
2019-05-20T02:13:44.993Z,17.20
2019-05-20T02:16:16.072Z,14.37
2019-05-20T02:18:46.927Z,13.60
2019-05-20T02:21:17.605Z,13.87
2019-05-20T02:23:48.246Z,14.60
2019-05-20T02:26:18.878Z,17.87
2019-05-20T02:28:49.454Z,14.93
2019-05-20T02:31:20.038Z,13.73
2019-05-20T02:33:52.757Z,12.50
2019-05-20T02:36:22.894Z,15.13
2019-05-20T02:38:53.496Z,14.20
2019-05-20T02:41:24.055Z,16.37
2019-05-20T02:43:54.674Z,14.57
2019-05-20T02:46:25.411Z,13.80
2019-05-20T02:48:56.062Z,14.87
2019-05-20T02:51:32.798Z,14.57
2019-05-20T02:54:03.562Z,17.73
2019-05-20T02:56:34.159Z,17.80
2019-05-20T02:59:05.383Z,18.40
2019-05-20T03:01:35.927Z,15.87
2019-05-20T03:04:12.018Z,15.20
2019-05-20T03:06:38.947Z,19.90
2019-05-20T03:09:12.178Z,14.57
2019-05-20T03:11:42.088Z,15.67
2019-05-20T03:14:12.653Z,17.93
2019-05-20T03:16:43.225Z,17.33
2019-05-20T03:19:13.910Z,13.67
2019-05-20T03:21:44.676Z,16.37
2019-05-20T03:24:15.249Z,16.53
2019-05-20T03:26:45.965Z,17.83
2019-05-20T03:29:16.589Z,17.10
2019-05-20T03:31:47.199Z,16.87
2019-05-20T03:34:42.392Z,14.70
2019-05-20T03:36:50.176Z,16.13
2019-05-20T03:39:20.750Z,16.90
2019-05-20T03:41:51.338Z,15.93
2019-05-20T03:44:21.912Z,18.00
2019-05-20T03:46:52.496Z,19.97
2019-05-20T03:49:23.071Z,15.03
2019-05-20T03:51:53.660Z,29.17
2019-05-20T03:54:24.256Z,19.30
2019-05-20T03:56:54.914Z,14.27
2019-05-20T03:59:25.537Z,18.90
2019-05-20T04:01:56.077Z,18.87
2019-05-20T04:04:26.656Z,19.83
2019-05-20T04:06:57.239Z,17.63
2019-05-20T04:09:28.047Z,16.73
2019-05-20T04:11:59.022Z,17.97
2019-05-20T04:14:29.593Z,16.50
2019-05-20T04:17:00.188Z,16.87
2019-05-20T04:19:30.893Z,16.90
2019-05-20T04:22:01.562Z,15.77
2019-05-20T04:24:32.333Z,14.53
2019-05-20T04:27:02.944Z,15.50
2019-05-20T04:29:33.641Z,14.77
2019-05-20T04:32:04.248Z,13.43
2019-05-20T04:34:34.822Z,14.27
2019-05-20T04:37:05.403Z,13.23
2019-05-20T04:39:35.968Z,12.93
2019-05-20T04:42:07.183Z,17.73
2019-05-20T04:44:38.018Z,13.97
2019-05-20T04:47:08.569Z,17.43
2019-05-20T04:49:39.149Z,12.60
2019-05-20T04:52:09.729Z,16.40
2019-05-20T04:54:40.317Z,19.87
2019-05-20T04:57:11.153Z,13.47
2019-05-20T04:59:41.726Z,13.93
2019-05-20T05:02:12.305Z,13.90
2019-05-20T05:04:43.055Z,16.37
2019-05-20T05:07:13.772Z,16.20
2019-05-20T05:09:44.481Z,15.40
2019-05-20T05:12:16.742Z,13.13
2019-05-20T05:14:47.940Z,13.90
2019-05-20T05:17:18.680Z,11.73
2019-05-20T05:19:49.389Z,13.83
2019-05-20T05:22:20.578Z,12.83
2019-05-20T05:24:51.716Z,12.40
2019-05-20T05:27:23.456Z,13.67
2019-05-20T05:29:54.779Z,12.13
2019-05-20T05:32:44.687Z,13.43
2019-05-20T05:35:17.319Z,15.03
2019-05-20T05:37:48.969Z,15.20
2019-05-20T05:40:23.420Z,18.13
2019-05-20T05:42:54.701Z,17.07
2019-05-20T05:45:35.342Z,13.87
2019-05-20T05:48:06.202Z,14.67
2019-05-20T05:50:36.838Z,14.30
2019-05-20T05:53:07.413Z,16.27
2019-05-20T05:55:37.993Z,14.30
2019-05-20T05:58:08.996Z,14.73
2019-05-20T06:00:40.305Z,16.77
2019-05-20T06:03:10.965Z,14.25
2019-05-20T06:05:41.579Z,15.45
2019-05-20T06:08:12.240Z,15.13
2019-05-20T06:10:42.865Z,19.40
2019-05-20T06:13:13.643Z,21.37
2019-05-20T06:15:44.324Z,14.28
2019-05-20T06:18:14.932Z,16.10
2019-05-20T06:20:45.607Z,15.83
2019-05-20T06:23:16.711Z,16.62
2019-05-20T06:25:47.291Z,17.25
2019-05-20T06:28:17.939Z,18.95
2019-05-20T06:30:48.601Z,15.43
2019-05-20T06:33:19.203Z,17.27
2019-05-20T06:35:49.858Z,14.95
2019-05-20T06:38:34.428Z,16.35
2019-05-20T06:41:07.066Z,14.03
2019-05-20T06:43:37.647Z,16.17
2019-05-20T06:46:08.253Z,13.10
2019-05-20T06:48:38.916Z,15.78
2019-05-20T06:51:09.525Z,12.18
2019-05-20T06:53:41.199Z,12.98
2019-05-20T06:56:11.884Z,11.93
2019-05-20T06:58:42.462Z,14.38
2019-05-20T07:01:13.048Z,14.87
2019-05-20T07:03:43.827Z,13.75
2019-05-20T07:06:14.393Z,14.38
2019-05-20T07:08:44.980Z,13.93
2019-05-20T07:11:15.575Z,14.43
2019-05-20T07:13:46.151Z,13.75
2019-05-20T07:16:16.728Z,12.80
2019-05-20T07:18:48.672Z,13.20
2019-05-20T07:21:19.245Z,18.20
2019-05-20T07:23:52.410Z,18.00
2019-05-20T07:26:22.203Z,11.88
2019-05-20T07:28:53.721Z,13.58
2019-05-20T07:31:24.341Z,12.78
2019-05-20T07:33:54.976Z,15.40
2019-05-20T07:36:25.778Z,13.68
2019-05-20T07:38:56.534Z,15.68
2019-05-20T07:41:27.125Z,17.30
2019-05-20T07:43:57.721Z,15.10
2019-05-20T07:46:28.542Z,18.00
2019-05-20T07:49:00.051Z,16.23
2019-05-20T07:51:31.089Z,15.28
2019-05-20T07:54:03.154Z,15.93
2019-05-20T07:56:37.350Z,18.90
2019-05-20T07:59:11.615Z,14.83
2019-05-20T08:01:43.394Z,20.13
2019-05-20T08:04:14.246Z,18.20
2019-05-20T08:06:45.873Z,20.07
2019-05-20T08:09:16.988Z,23.73
2019-05-20T08:11:47.660Z,18.77
2019-05-20T08:14:18.765Z,19.57
2019-05-20T08:16:49.650Z,20.83
2019-05-20T08:19:20.454Z,21.63
2019-05-20T08:21:51.439Z,18.30
2019-05-20T08:24:23.556Z,21.20
2019-05-20T08:26:54.252Z,21.67
2019-05-20T08:29:25.215Z,22.43
2019-05-20T08:31:56.597Z,21.33
2019-05-20T08:34:27.551Z,20.50
2019-05-20T08:36:58.338Z,19.63
2019-05-20T08:39:29.280Z,21.80
2019-05-20T08:42:00.243Z,20.67
2019-05-20T08:44:31.341Z,21.67
2019-05-20T08:47:02.168Z,25.17
2019-05-20T08:49:32.953Z,20.63
2019-05-20T08:52:03.606Z,24.40
2019-05-20T08:54:34.460Z,22.93
2019-05-20T08:57:05.134Z,22.17
2019-05-20T08:59:35.747Z,20.13
2019-05-20T09:02:06.383Z,19.53
2019-05-20T09:04:37.181Z,19.37
2019-05-20T09:07:08.722Z,22.10
2019-05-20T09:09:39.475Z,20.00
2019-05-20T09:12:10.090Z,23.93
2019-05-20T09:14:40.808Z,22.00
2019-05-20T09:17:13.155Z,21.97
2019-05-20T09:19:46.830Z,21.37
2019-05-20T09:22:15.998Z,21.83
2019-05-20T09:24:46.724Z,22.40
2019-05-20T09:27:18.625Z,25.53
2019-05-20T09:29:49.502Z,22.83
2019-05-20T09:32:20.299Z,27.20
2019-05-20T09:34:50.948Z,24.80
2019-05-20T09:37:21.671Z,22.10
2019-05-20T09:39:52.456Z,22.90
2019-05-20T09:42:24.234Z,26.10
2019-05-20T09:44:54.808Z,19.77
2019-05-20T09:47:25.501Z,26.23
2019-05-20T09:49:56.079Z,27.17
2019-05-20T09:52:26.741Z,26.33
2019-05-20T09:54:57.432Z,23.33
2019-05-20T09:57:29.330Z,29.20
2019-05-20T09:59:59.870Z,24.93
2019-05-20T10:02:34.522Z,29.57
2019-05-20T10:05:03.220Z,26.50
2019-05-20T10:07:34.286Z,29.43
2019-05-20T10:10:08.033Z,25.00
2019-05-20T10:12:46.230Z,32.97
2019-05-20T10:15:11.171Z,25.20
2019-05-20T10:17:41.742Z,23.20
2019-05-20T10:20:12.863Z,25.33
2019-05-20T10:22:43.556Z,24.60
2019-05-20T10:25:14.455Z,21.77
2019-05-20T10:27:45.061Z,27.90
2019-05-20T10:30:17.154Z,26.87
2019-05-20T10:32:47.743Z,25.00
2019-05-20T10:35:18.376Z,34.17
2019-05-20T10:37:48.956Z,25.57
2019-05-20T10:40:19.612Z,24.20
2019-05-20T10:42:50.644Z,27.50
2019-05-20T10:45:21.281Z,23.77
2019-05-20T10:47:51.879Z,26.23
2019-05-20T10:50:22.962Z,27.43
2019-05-20T10:52:53.555Z,23.03
2019-05-20T10:55:24.166Z,20.50
2019-05-20T10:57:55.765Z,21.47
2019-05-20T11:00:29.136Z,23.30
2019-05-20T11:02:59.720Z,25.27
2019-05-20T11:05:30.293Z,23.60
2019-05-20T11:08:00.876Z,26.70
2019-05-20T11:10:31.558Z,23.73
2019-05-20T11:13:02.294Z,24.07
2019-05-20T11:15:32.925Z,27.13
2019-05-20T11:18:03.629Z,21.47
2019-05-20T11:20:34.345Z,24.03
2019-05-20T11:23:04.953Z,23.33
2019-05-20T11:25:35.711Z,25.60
2019-05-20T11:28:06.284Z,21.90
2019-05-20T11:30:36.892Z,24.13
2019-05-20T11:33:07.587Z,26.27
2019-05-20T11:35:38.178Z,18.53
2019-05-20T11:38:08.780Z,20.47
2019-05-20T11:40:40.287Z,21.63
2019-05-20T11:43:10.866Z,22.40
2019-05-20T11:45:44.764Z,27.73
2019-05-20T11:48:15.338Z,20.23
2019-05-20T11:50:45.912Z,27.23
2019-05-20T11:53:16.566Z,20.67
2019-05-20T11:55:47.218Z,20.60
2019-05-20T11:58:18.115Z,23.23
2019-05-20T12:00:48.861Z,21.87
2019-05-20T12:03:20.640Z,24.67
2019-05-20T12:05:51.339Z,21.02
2019-05-20T12:08:21.909Z,23.50
2019-05-20T12:10:52.497Z,21.73
2019-05-20T12:13:23.081Z,20.55
2019-05-20T12:15:53.847Z,21.80
2019-05-20T12:18:24.519Z,23.62
2019-05-20T12:20:55.100Z,20.92
2019-05-20T12:23:25.684Z,22.22
2019-05-20T12:25:56.272Z,24.65
2019-05-20T12:28:26.958Z,24.15
2019-05-20T12:30:57.564Z,23.15
2019-05-20T12:33:28.181Z,24.82
2019-05-20T12:35:58.767Z,22.90
2019-05-20T12:38:30.065Z,24.20
2019-05-20T12:41:00.703Z,23.75
2019-05-20T12:43:31.319Z,22.60
2019-05-20T12:46:02.013Z,27.45
2019-05-20T12:48:33.762Z,25.70
2019-05-20T12:51:04.366Z,24.55
2019-05-20T12:53:35.092Z,21.48
2019-05-20T12:56:05.655Z,26.55
2019-05-20T12:58:36.251Z,23.02
2019-05-20T13:01:06.960Z,24.45
2019-05-20T13:03:37.603Z,21.60
2019-05-20T13:06:09.690Z,21.20
2019-05-20T13:08:40.271Z,22.32
2019-05-20T13:11:10.856Z,25.48
2019-05-20T13:13:41.436Z,20.97
2019-05-20T13:16:12.021Z,18.85
2019-05-20T13:18:55.039Z,27.37
2019-05-20T13:21:14.898Z,20.40
2019-05-20T13:23:48.775Z,19.90
2019-05-20T13:26:18.101Z,21.75
2019-05-20T13:28:50.924Z,21.62
2019-05-20T13:31:21.996Z,23.62
2019-05-20T13:33:53.757Z,23.12
2019-05-20T13:36:24.334Z,19.80
2019-05-20T13:38:55.206Z,25.60
2019-05-20T13:41:26.015Z,22.37
2019-05-20T13:43:56.600Z,18.27
2019-05-20T13:46:27.578Z,20.75
2019-05-20T13:48:58.274Z,19.40
2019-05-20T13:51:29.100Z,19.40
2019-05-20T13:53:59.822Z,20.45
2019-05-20T13:56:30.440Z,18.92
2019-05-20T13:59:01.015Z,22.50
2019-05-20T14:01:31.624Z,17.90
2019-05-20T14:04:02.260Z,20.88
2019-05-20T14:06:32.843Z,15.72
2019-05-20T14:09:07.596Z,18.48
2019-05-20T14:11:38.054Z,14.38
2019-05-20T14:14:08.725Z,14.85
2019-05-20T14:16:39.501Z,16.17
2019-05-20T14:19:10.282Z,13.95
2019-05-20T14:21:41.080Z,16.55
2019-05-20T14:24:12.052Z,15.72
2019-05-20T14:26:43.841Z,20.15
2019-05-20T14:29:14.824Z,18.40
2019-05-20T14:31:45.543Z,15.45
2019-05-20T14:34:16.129Z,20.63
2019-05-20T14:36:46.710Z,13.30
2019-05-20T14:39:18.173Z,16.37
2019-05-20T14:41:48.968Z,15.17
2019-05-20T14:44:19.507Z,13.00
2019-05-20T14:46:50.394Z,11.70
2019-05-20T14:49:20.948Z,11.80
2019-05-20T14:51:51.549Z,13.50
2019-05-20T14:54:22.206Z,8.47
2019-05-20T14:56:52.808Z,9.80
2019-05-20T14:59:23.709Z,7.07
2019-05-20T15:01:54.406Z,10.53
2019-05-20T15:04:25.005Z,8.83
2019-05-20T15:06:55.618Z,6.00
2019-05-20T15:09:26.648Z,7.70
2019-05-20T15:11:57.319Z,6.57
2019-05-20T15:17:06.115Z,4.47
2019-05-20T15:19:37.152Z,10.53
2019-05-20T15:22:07.804Z,6.37
2019-05-20T15:24:38.465Z,6.40
2019-05-20T15:27:09.043Z,5.53
2019-05-20T15:29:39.937Z,6.17
2019-05-20T15:32:10.608Z,6.33
2019-05-20T15:34:41.189Z,7.53
2019-05-20T15:37:11.833Z,4.80
2019-05-20T15:39:42.403Z,6.47
2019-05-20T15:42:13.370Z,4.13
2019-05-20T15:44:43.962Z,4.53
2019-05-20T15:47:18.136Z,5.97
2019-05-20T15:49:46.827Z,7.60
2019-05-20T15:52:17.404Z,5.13
2019-05-20T15:54:47.996Z,2.83
2019-05-20T15:57:18.583Z,3.13
2019-05-20T15:59:49.158Z,4.50
2019-05-20T16:02:19.778Z,9.17
2019-05-20T16:04:50.447Z,4.27
2019-05-20T16:07:21.245Z,2.27
2019-05-20T16:09:53.406Z,5.70
2019-05-20T16:12:23.920Z,2.50
2019-05-20T16:14:54.966Z,2.43
2019-05-20T16:17:25.665Z,1.80
2019-05-20T16:19:56.269Z,2.77
2019-05-20T16:22:26.859Z,2.80
2019-05-20T16:24:59.199Z,5.63
2019-05-20T16:27:32.775Z,3.60
2019-05-20T16:30:06.993Z,4.33
2019-05-20T16:32:36.414Z,6.77
2019-05-20T16:35:07.644Z,3.73
2019-05-20T16:37:39.922Z,5.70
2019-05-20T16:40:11.512Z,2.33
2019-05-20T16:42:42.838Z,13.90
2019-05-20T16:45:15.050Z,13.93
2019-05-20T16:47:45.638Z,14.33
2019-05-20T16:50:16.873Z,14.20
2019-05-20T16:52:47.489Z,11.50
2019-05-20T16:55:18.196Z,13.70
2019-05-20T16:57:49.129Z,5.07
2019-05-20T17:00:31.555Z,2.30
2019-05-20T17:02:52.858Z,8.47
2019-05-20T17:05:23.410Z,5.53
2019-05-20T17:07:53.980Z,4.50
2019-05-20T17:10:24.539Z,2.33
2019-05-20T17:12:55.606Z,2.73
2019-05-20T17:15:26.221Z,1.57
2019-05-20T17:17:57.003Z,3.97
2019-05-20T17:20:27.594Z,10.73
2019-05-20T17:22:58.678Z,4.30
2019-05-20T17:25:29.446Z,6.37
2019-05-20T17:28:01.000Z,5.03
2019-05-20T17:30:44.488Z,2.67
2019-05-20T17:33:04.227Z,4.83
2019-05-20T17:35:34.827Z,7.07
2019-05-20T17:38:05.952Z,6.10
2019-05-20T17:40:38.274Z,3.13
2019-05-20T17:43:09.943Z,3.53
2019-05-20T17:45:40.534Z,5.80
2019-05-20T17:48:11.494Z,4.27
2019-05-20T17:50:43.447Z,9.10
2019-05-20T17:53:14.008Z,6.00
2019-05-20T17:55:44.924Z,7.57
2019-05-20T17:58:17.137Z,7.53
2019-05-20T18:00:47.975Z,7.47
2019-05-20T18:03:18.557Z,9.47
2019-05-20T18:05:49.163Z,10.87
2019-05-20T18:08:20.843Z,14.90
2019-05-20T18:10:51.458Z,18.90
2019-05-20T18:13:22.141Z,20.07
2019-05-20T18:15:52.736Z,17.13
2019-05-20T18:18:23.655Z,25.33
2019-05-20T18:20:56.488Z,45.10
2019-05-20T18:23:26.470Z,38.67
2019-05-20T18:25:57.060Z,20.43
2019-05-20T18:28:28.227Z,8.77
2019-05-20T18:31:00.224Z,18.60
2019-05-20T18:33:30.900Z,9.93
2019-05-20T18:36:03.590Z,13.10
2019-05-20T18:38:34.186Z,7.87
2019-05-20T18:41:04.913Z,8.23
2019-05-20T18:43:36.332Z,6.93
2019-05-20T18:46:07.766Z,9.57
2019-05-20T18:48:38.425Z,9.90
2019-05-20T18:51:09.297Z,9.70
2019-05-20T18:53:40.453Z,8.40
2019-05-20T18:56:11.160Z,23.60
2019-05-20T18:58:41.895Z,100.47
2019-05-20T19:01:14.332Z,409.90
2019-05-20T19:03:45.157Z,665.67
2019-05-20T19:06:15.800Z,482.30
2019-05-20T19:08:46.569Z,439.07
2019-05-20T19:11:17.188Z,229.60
2019-05-20T19:13:47.881Z,118.20
2019-05-20T19:16:18.957Z,82.93
2019-05-20T19:18:49.723Z,129.33
2019-05-20T19:21:21.298Z,112.60
2019-05-20T19:23:51.945Z,152.37
2019-05-20T19:26:25.500Z,113.97
2019-05-20T19:28:58.351Z,59.20
2019-05-20T19:31:29.383Z,55.63
2019-05-20T19:34:01.967Z,65.93
2019-05-20T19:36:35.669Z,93.73
2019-05-20T19:39:08.389Z,54.53
2019-05-20T19:41:40.741Z,56.07
2019-05-20T19:44:13.498Z,54.87
2019-05-20T19:46:46.482Z,50.07
2019-05-20T19:49:17.555Z,37.43
2019-05-20T19:51:49.436Z,36.23
2019-05-20T19:54:20.368Z,35.97
2019-05-20T19:56:51.239Z,30.63
2019-05-20T19:59:24.523Z,30.43
2019-05-20T20:01:55.358Z,35.00
2019-05-20T20:04:26.021Z,27.90
2019-05-20T20:06:56.723Z,17.37
2019-05-20T20:09:27.911Z,13.07
2019-05-20T20:11:58.568Z,14.37
2019-05-20T20:14:30.483Z,13.13
2019-05-20T20:17:01.187Z,16.67
2019-05-20T20:19:31.884Z,23.47
2019-05-20T20:22:02.548Z,17.60
2019-05-20T20:24:33.264Z,17.47
2019-05-20T20:27:03.945Z,17.10
2019-05-20T20:29:34.604Z,14.10
2019-05-20T20:32:05.179Z,15.10
2019-05-20T20:34:35.874Z,22.03
2019-05-20T20:37:06.523Z,23.27
2019-05-20T20:39:37.576Z,18.43
2019-05-20T20:42:08.330Z,11.57
2019-05-20T20:44:38.936Z,11.23
2019-05-20T20:47:09.651Z,10.50
2019-05-20T20:49:40.777Z,9.47
2019-05-20T20:52:11.522Z,8.83
2019-05-20T20:54:42.100Z,8.40
2019-05-20T20:57:12.812Z,9.23
2019-05-20T20:59:43.463Z,16.00
2019-05-20T21:02:14.176Z,12.50
2019-05-20T21:04:44.867Z,9.07
2019-05-20T21:07:15.538Z,7.73
2019-05-20T21:09:46.097Z,8.33
2019-05-20T21:12:16.668Z,8.30
2019-05-20T21:14:47.230Z,7.87
2019-05-20T21:17:17.802Z,7.27
2019-05-20T21:19:48.357Z,6.13
2019-05-20T21:22:18.987Z,10.73
2019-05-20T21:24:51.153Z,7.57
2019-05-20T21:27:21.718Z,7.67
2019-05-20T21:29:52.450Z,8.60
2019-05-20T21:32:22.999Z,7.67
2019-05-20T21:34:53.584Z,9.43
2019-05-20T21:37:24.164Z,12.60
2019-05-20T21:39:54.792Z,13.43
2019-05-20T21:42:25.352Z,10.67
2019-05-20T21:44:55.926Z,13.20
2019-05-20T21:47:26.506Z,11.47
2019-05-20T21:49:57.062Z,9.10
2019-05-20T21:52:27.640Z,10.73
2019-05-20T21:54:58.221Z,7.27
2019-05-20T21:57:28.851Z,7.30
2019-05-20T21:59:59.458Z,7.13
2019-05-20T22:02:30.129Z,6.70
2019-05-20T22:05:00.669Z,6.13
2019-05-20T22:07:31.513Z,10.03
2019-05-20T22:10:02.191Z,9.03
2019-05-20T22:12:34.403Z,8.33
2019-05-20T22:15:07.022Z,5.93
2019-05-20T22:17:37.616Z,9.00
2019-05-20T22:20:08.326Z,19.80
2019-05-20T22:22:48.227Z,18.97
2019-05-20T22:25:18.854Z,26.53
2019-05-20T22:27:49.500Z,24.80
2019-05-20T22:30:20.106Z,32.20
2019-05-20T22:32:50.851Z,42.07
2019-05-20T22:35:21.430Z,36.03
2019-05-20T22:37:52.165Z,33.13
2019-05-20T22:40:22.803Z,27.50
2019-05-20T22:42:53.406Z,36.67
2019-05-20T22:45:24.047Z,29.27
2019-05-20T22:47:54.731Z,19.10
2019-05-20T22:50:25.304Z,17.47
2019-05-20T22:52:56.194Z,15.47
2019-05-20T22:55:26.714Z,12.83
2019-05-20T22:57:57.434Z,12.60
2019-05-20T23:00:28.017Z,13.23
2019-05-20T23:02:59.966Z,9.33
2019-05-20T23:05:30.754Z,11.07
2019-05-20T23:08:01.410Z,9.50
2019-05-20T23:10:32.074Z,10.83
2019-05-20T23:13:02.929Z,9.60
2019-05-20T23:15:33.636Z,10.97
2019-05-20T23:18:04.295Z,8.37
2019-05-20T23:20:34.972Z,10.90
2019-05-20T23:23:05.717Z,9.47
2019-05-20T23:25:36.484Z,11.57
2019-05-20T23:28:07.279Z,8.73
2019-05-20T23:30:38.012Z,9.70
2019-05-20T23:33:08.733Z,11.50
2019-05-20T23:35:39.394Z,9.50
2019-05-20T23:38:09.932Z,8.93
2019-05-20T23:40:40.493Z,8.70
2019-05-20T23:43:11.169Z,10.50
2019-05-20T23:45:41.965Z,10.73
2019-05-20T23:48:13.509Z,43.07
2019-05-20T23:50:44.067Z,12.30
2019-05-20T23:53:14.624Z,7.83
2019-05-20T23:55:45.657Z,9.40
2019-05-20T23:58:16.214Z,10.00
